Time;durP1;ratioP1;P1;durP2;ratioP2;P2;SDS_P1;SDS_P2;PMS_P1;PMS_P2;Temp;Humidity;BMP_temperature;BMP_pressure;BME280_temperature;BME280_humidity;BME280_pressure;Samples;Min_cycle;Max_cycle;Signal;HPM_P1;HPM_P2
2021/08/19 00:01:59;;;;;;;11.00;3.65;;;;;;;12.87;55.56;101002.69;5037330;28;20065;-69
2021/08/19 00:04:24;;;;;;;4.30;2.95;;;;;;;13.10;54.80;101005.09;5034671;28;20047;-68
2021/08/19 00:06:50;;;;;;;5.40;3.08;;;;;;;13.14;54.62;101015.41;5036672;28;20033;-68
2021/08/19 00:09:16;;;;;;;7.20;3.55;;;;;;;12.99;55.30;101010.00;5037939;28;20537;-68
2021/08/19 00:11:42;;;;;;;7.65;4.07;;;;;;;13.08;54.96;101006.94;5031768;28;20080;-69
2021/08/19 00:14:07;;;;;;;5.68;2.72;;;;;;;13.16;55.05;101005.69;5033105;28;20044;-68
2021/08/19 00:16:33;;;;;;;7.03;3.00;;;;;;;13.25;54.90;101008.75;5029938;28;20037;-69
2021/08/19 00:18:58;;;;;;;7.25;3.42;;;;;;;13.31;54.87;101012.81;5033400;28;20178;-68
2021/08/19 00:21:24;;;;;;;9.55;3.53;;;;;;;13.29;54.93;101018.16;5035417;28;20157;-68
2021/08/19 00:23:50;;;;;;;6.57;3.17;;;;;;;13.47;54.76;101013.78;5035194;28;20094;-68
2021/08/19 00:26:15;;;;;;;7.75;3.85;;;;;;;13.39;54.33;101015.94;5036943;28;20417;-67
2021/08/19 00:28:41;;;;;;;7.28;3.70;;;;;;;13.39;54.56;101013.31;5037767;28;20029;-68
2021/08/19 00:31:06;;;;;;;4.78;3.28;;;;;;;13.33;54.84;101011.81;5036114;28;20045;-67
2021/08/19 00:33:32;;;;;;;7.05;3.65;;;;;;;13.36;54.76;101004.72;5037009;28;20506;-67
2021/08/19 00:35:57;;;;;;;6.75;3.33;;;;;;;13.34;54.72;101004.81;5037835;28;20041;-67
2021/08/19 00:38:23;;;;;;;6.38;3.92;;;;;;;13.45;54.64;101009.50;5033842;28;20030;-69
2021/08/19 00:40:48;;;;;;;9.82;3.55;;;;;;;13.58;54.52;101012.41;5035850;28;20517;-71
2021/08/19 00:43:14;;;;;;;9.23;4.18;;;;;;;13.45;54.69;101009.50;5034875;28;20414;-69
2021/08/19 00:45:39;;;;;;;5.22;3.70;;;;;;;13.44;54.80;101013.06;5040832;28;20087;-70
2021/08/19 00:48:06;;;;;;;9.30;3.40;;;;;;;13.41;55.12;101008.84;5036242;28;20033;-71
2021/08/19 00:50:32;;;;;;;8.90;4.25;;;;;;;13.43;55.15;101011.34;5036518;28;20040;-69
2021/08/19 00:52:58;;;;;;;11.77;3.70;;;;;;;13.34;55.30;101012.69;5036101;28;20025;-70
2021/08/19 00:55:24;;;;;;;5.22;3.50;;;;;;;13.37;55.48;101009.91;5036975;28;20037;-69
2021/08/19 00:57:49;;;;;;;6.47;4.30;;;;;;;13.45;55.26;101007.75;5052733;28;20036;-69
2021/08/19 01:00:17;;;;;;;8.73;3.50;;;;;;;13.27;55.97;101011.28;5036264;28;20457;-69
2021/08/19 01:02:45;;;;;;;12.68;5.18;;;;;;;13.08;56.58;100998.22;5033591;28;20031;-69
2021/08/19 01:05:15;;;;;;;6.45;4.10;;;;;;;13.52;55.35;101008.31;5035374;28;20100;-70
2021/08/19 01:07:41;;;;;;;5.47;4.18;;;;;;;13.67;54.95;101001.44;5035353;28;20025;-70
2021/08/19 01:10:07;;;;;;;8.85;4.13;;;;;;;13.62;54.82;101004.28;5036238;28;20098;-69
2021/08/19 01:12:33;;;;;;;10.45;4.18;;;;;;;13.46;55.07;101008.59;5034712;28;20398;-68
2021/08/19 01:14:59;;;;;;;10.63;3.20;;;;;;;13.32;55.60;101006.66;5037494;28;20116;-68
2021/08/19 01:17:26;;;;;;;6.15;4.15;;;;;;;13.34;55.77;101010.06;5038085;28;20136;-66
2021/08/19 01:19:51;;;;;;;7.10;3.97;;;;;;;13.30;55.90;101011.97;5036046;28;20026;-66
2021/08/19 01:22:23;;;;;;;9.80;4.05;;;;;;;13.20;56.30;101004.63;5035972;28;20417;-66
2021/08/19 01:24:49;;;;;;;8.80;4.30;;;;;;;13.27;55.72;101006.91;5037334;28;20021;-67
2021/08/19 01:27:19;;;;;;;9.70;4.63;;;;;;;12.91;57.11;101004.25;5036187;28;20600;-67
2021/08/19 01:29:47;;;;;;;5.45;3.90;;;;;;;12.95;56.98;101004.97;5037764;28;20030;-67
2021/08/19 01:32:12;;;;;;;10.45;5.15;;;;;;;13.07;56.11;101009.63;5034684;28;20461;-67
2021/08/19 01:34:39;;;;;;;7.78;4.90;;;;;;;13.15;55.99;101001.38;5038398;28;20135;-67
2021/08/19 01:37:05;;;;;;;9.85;4.97;;;;;;;13.22;55.92;101011.50;5037467;28;20033;-67
2021/08/19 01:39:31;;;;;;;9.15;5.32;;;;;;;13.21;55.97;101006.34;5041217;28;20050;-67
2021/08/19 01:41:57;;;;;;;11.50;5.10;;;;;;;13.04;56.45;101010.63;5036549;28;20037;-67
2021/08/19 01:44:23;;;;;;;11.00;5.35;;;;;;;13.20;55.94;101010.72;5037280;28;20116;-67
2021/08/19 01:46:59;;;;;;;8.70;5.03;;;;;;;12.87;57.17;101007.94;5038335;28;20124;-67
2021/08/19 01:49:29;;;;;;;7.05;4.30;;;;;;;13.17;56.57;101016.13;5038872;28;20032;-67
2021/08/19 01:51:54;;;;;;;9.77;4.90;;;;;;;13.30;55.99;101016.38;5034188;28;20460;-68
2021/08/19 01:54:23;;;;;;;10.90;4.70;;;;;;;13.45;55.73;101007.75;5036723;28;20089;-69
2021/08/19 01:56:48;;;;;;;8.48;5.40;;;;;;;13.11;56.54;101013.78;5034676;28;20040;-67
2021/08/19 01:59:14;;;;;;;7.40;4.70;;;;;;;13.48;55.72;101012.84;5034803;28;20068;-68
2021/08/19 02:01:39;;;;;;;5.68;4.43;;;;;;;13.63;55.52;101013.00;5038111;28;20040;-67
2021/08/19 02:04:06;;;;;;;12.57;5.07;;;;;;;13.59;55.20;101016.75;5040096;28;20044;-68
2021/08/19 02:06:32;;;;;;;7.65;4.10;;;;;;;13.50;55.59;101012.78;5036504;28;20417;-67
2021/08/19 02:08:58;;;;;;;7.88;3.80;;;;;;;13.73;55.01;101009.00;5036356;28;20029;-68
2021/08/19 02:11:24;;;;;;;4.20;3.53;;;;;;;13.62;54.96;101008.69;5035688;28;20048;-68
2021/08/19 02:13:50;;;;;;;4.88;3.72;;;;;;;13.64;54.84;101012.09;5037411;28;20037;-68
2021/08/19 02:16:16;;;;;;;6.50;3.92;;;;;;;13.67;54.86;101009.31;5033185;28;20301;-68
2021/08/19 02:18:41;;;;;;;7.03;3.42;;;;;;;13.71;54.66;101005.59;5038417;28;20128;-69
2021/08/19 02:21:07;;;;;;;8.40;4.32;;;;;;;13.85;54.34;101003.13;5034395;28;20048;-68
2021/08/19 02:23:32;;;;;;;5.35;3.50;;;;;;;13.80;54.24;101005.13;5037484;28;20037;-68
2021/08/19 02:25:58;;;;;;;8.10;4.38;;;;;;;13.58;54.88;101009.78;5034988;28;20080;-68
2021/08/19 02:28:23;;;;;;;10.95;4.30;;;;;;;13.34;55.26;101007.44;5034014;28;20037;-69
2021/08/19 02:30:48;;;;;;;9.27;4.03;;;;;;;13.38;55.26;101014.22;5034058;28;20059;-68
2021/08/19 02:33:14;;;;;;;10.18;4.50;;;;;;;13.66;54.75;101002.38;5039617;28;20037;-68
2021/08/19 02:35:39;;;;;;;7.93;3.33;;;;;;;13.33;55.77;101003.09;5035132;28;20036;-68
2021/08/19 02:38:06;;;;;;;6.88;2.95;;;;;;;13.56;54.93;100993.22;5036306;28;20041;-69
2021/08/19 02:40:34;;;;;;;11.18;4.45;;;;;;;13.40;55.74;100996.63;5033771;28;20061;-69
2021/08/19 02:43:00;;;;;;;6.53;3.35;;;;;;;13.43;55.43;100998.22;5035420;28;20059;-68
2021/08/19 02:45:25;;;;;;;8.02;3.38;;;;;;;13.84;54.50;100990.91;5035734;28;20136;-69
2021/08/19 02:47:51;;;;;;;9.20;3.90;;;;;;;13.50;54.85;100989.13;5037025;28;20113;-68
2021/08/19 02:50:17;;;;;;;7.60;3.95;;;;;;;13.76;54.46;100987.81;5032678;28;20418;-68
2021/08/19 02:52:43;;;;;;;4.78;3.95;;;;;;;13.84;54.02;100985.66;5033558;28;20044;-69
2021/08/19 02:55:09;;;;;;;7.53;3.58;;;;;;;13.81;54.12;100980.56;5034309;28;20048;-69
2021/08/19 02:57:35;;;;;;;4.70;2.63;;;;;;;13.70;54.34;100982.91;5034837;28;20107;-69
2021/08/19 03:00:00;;;;;;;5.82;3.90;;;;;;;13.26;55.83;100984.19;5034411;28;20037;-69
2021/08/19 03:02:26;;;;;;;7.00;3.38;;;;;;;13.44;55.09;100977.16;5034907;28;20258;-70
2021/08/19 03:04:52;;;;;;;11.27;4.28;;;;;;;13.59;54.91;100980.81;5037394;28;20426;-69
2021/08/19 03:07:18;;;;;;;8.75;3.92;;;;;;;13.52;55.00;100982.88;5034750;28;20047;-69
2021/08/19 03:09:44;;;;;;;7.57;3.75;;;;;;;13.59;54.96;100985.22;5032328;28;20082;-69
2021/08/19 03:12:09;;;;;;;8.90;3.50;;;;;;;13.52;54.94;100979.41;5036737;28;20041;-69
2021/08/19 03:14:35;;;;;;;5.72;3.20;;;;;;;13.30;55.80;100985.72;5032464;28;20400;-70
2021/08/19 03:17:01;;;;;;;11.05;3.88;;;;;;;13.00;56.07;100977.56;5035630;28;20040;-69
2021/08/19 03:19:27;;;;;;;6.32;3.53;;;;;;;13.62;55.12;100980.66;5034880;28;20045;-68
2021/08/19 03:21:53;;;;;;;5.90;3.08;;;;;;;13.50;54.94;100981.25;5033580;28;20064;-66
2021/08/19 03:24:18;;;;;;;10.05;3.47;;;;;;;13.54;55.26;100982.81;5033443;28;20097;-66
2021/08/19 03:26:44;;;;;;;5.45;3.38;;;;;;;13.46;55.47;100988.44;5039195;28;20318;-70
2021/08/19 03:29:09;;;;;;;7.45;2.85;;;;;;;13.58;54.87;100983.53;5035044;28;20036;-70
2021/08/19 03:31:35;;;;;;;6.00;3.03;;;;;;;13.80;54.25;100984.09;5035145;28;20033;-70
2021/08/19 03:34:00;;;;;;;7.57;3.58;;;;;;;13.84;54.28;100982.19;5035042;28;20048;-70
2021/08/19 03:36:26;;;;;;;4.85;2.40;;;;;;;13.98;53.84;100984.09;5030462;28;20094;-70
2021/08/19 03:38:52;;;;;;;5.32;2.42;;;;;;;13.99;53.61;100977.91;5033915;28;20107;-69
2021/08/19 03:41:18;;;;;;;6.68;2.35;;;;;;;13.94;53.53;100980.75;5033641;28;20047;-70
2021/08/19 03:43:45;;;;;;;5.20;2.72;;;;;;;13.83;53.88;100983.97;5034618;28;20037;-70
2021/08/19 03:46:11;;;;;;;3.95;2.15;;;;;;;13.73;54.03;100977.47;5034563;28;20103;-70
2021/08/19 03:48:36;;;;;;;7.40;2.90;;;;;;;13.86;53.85;100978.53;5035050;28;20486;-71
2021/08/19 03:51:03;;;;;;;5.82;2.67;;;;;;;13.84;54.01;100980.41;5036726;28;20033;-69
2021/08/19 03:53:29;;;;;;;7.38;3.00;;;;;;;13.85;53.68;100986.50;5032353;28;20033;-69
2021/08/19 03:55:55;;;;;;;7.15;2.55;;;;;;;13.68;54.15;100982.97;5037815;28;20037;-69
2021/08/19 03:58:20;;;;;;;10.25;2.90;;;;;;;13.65;54.13;100988.41;5036994;28;20025;-70
2021/08/19 04:00:47;;;;;;;3.53;2.03;;;;;;;13.71;54.17;100984.59;5038958;28;20134;-70
2021/08/19 04:03:14;;;;;;;5.60;3.10;;;;;;;13.42;55.07;100988.66;5036877;28;20488;-70
2021/08/19 04:05:40;;;;;;;6.03;3.33;;;;;;;13.65;54.30;100992.78;5036152;28;20123;-69
2021/08/19 04:08:06;;;;;;;7.60;2.65;;;;;;;13.63;54.39;100986.75;5038571;28;20036;-70
2021/08/19 04:10:31;;;;;;;6.50;3.10;;;;;;;13.33;55.31;100987.34;5035569;28;20032;-69
2021/08/19 04:12:56;;;;;;;4.55;2.55;;;;;;;13.48;54.85;100997.09;5039983;28;20572;-69
2021/08/19 04:15:24;;;;;;;6.32;3.60;;;;;;;13.33;55.65;100982.09;5038017;28;20037;-66
2021/08/19 04:17:52;;;;;;;3.53;2.88;;;;;;;13.32;55.65;100993.53;5045895;28;20033;-66
2021/08/19 04:20:18;;;;;;;8.77;3.53;;;;;;;13.07;56.27;100994.75;5040900;28;20094;-67
2021/08/19 04:22:44;;;;;;;4.82;3.03;;;;;;;13.19;56.31;100995.06;5040971;28;20119;-66
2021/08/19 04:25:10;;;;;;;7.63;3.42;;;;;;;13.44;55.42;100990.28;5038804;28;20463;-66
2021/08/19 04:27:35;;;;;;;7.18;3.05;;;;;;;13.38;55.35;100998.47;5034967;28;20477;-70
2021/08/19 04:30:01;;;;;;;7.45;3.58;;;;;;;13.20;56.09;100994.97;5037948;28;20029;-70
2021/08/19 04:32:26;;;;;;;5.40;3.08;;;;;;;13.36;55.89;100989.84;5040474;28;20401;-75
2021/08/19 04:34:52;;;;;;;6.82;3.33;;;;;;;13.02;56.95;100991.47;5041694;28;20013;-75
2021/08/19 04:37:17;;;;;;;4.50;3.22;;;;;;;13.17;56.36;100994.28;5053609;28;20037;-74
2021/08/19 04:39:43;;;;;;;5.70;3.70;;;;;;;13.51;55.72;100986.41;5039758;28;20028;-75
2021/08/19 04:42:08;;;;;;;6.20;2.55;;;;;;;13.57;55.54;100997.59;5045455;28;20526;-70
2021/08/19 04:44:34;;;;;;;6.72;2.58;;;;;;;13.64;54.90;100999.81;5038643;28;20071;-71
2021/08/19 04:47:00;;;;;;;4.65;2.67;;;;;;;13.57;55.07;101000.22;5037668;28;20113;-70
2021/08/19 04:49:25;;;;;;;9.32;3.15;;;;;;;13.68;55.05;101008.41;5035786;28;20036;-70
2021/08/19 04:51:51;;;;;;;13.30;2.97;;;;;;;13.70;55.37;101001.28;5039545;28;20065;-70
2021/08/19 04:54:16;;;;;;;8.15;3.28;;;;;;;13.57;55.30;100995.81;5037570;28;20096;-70
2021/08/19 04:56:42;;;;;;;12.70;3.28;;;;;;;14.03;54.47;101010.97;5054000;28;20036;-70
2021/08/19 04:59:09;;;;;;;6.88;2.50;;;;;;;14.26;53.85;101002.72;5034432;28;20482;-70
2021/08/19 05:01:36;;;;;;;7.50;3.38;;;;;;;14.14;54.09;101008.63;5035021;28;20043;-70
2021/08/19 05:04:03;;;;;;;10.73;3.28;;;;;;;14.14;53.92;101000.72;5036942;28;20047;-71
2021/08/19 05:06:32;;;;;;;8.27;3.67;;;;;;;14.18;54.18;101011.94;5036816;28;20763;-70
2021/08/19 05:09:00;;;;;;;10.10;2.90;;;;;;;13.89;54.97;101007.28;5032814;28;20238;-70
2021/08/19 05:11:25;;;;;;;9.73;3.22;;;;;;;13.91;55.01;101005.41;5037629;28;20040;-66
2021/08/19 05:13:52;;;;;;;8.95;3.15;;;;;;;14.15;54.46;101010.34;5034736;28;20428;-69
2021/08/19 05:16:18;;;;;;;7.47;2.60;;;;;;;14.19;54.12;101006.63;5044303;28;20529;-70
2021/08/19 05:18:44;;;;;;;4.88;2.58;;;;;;;14.03;54.80;101016.22;5043620;28;20091;-69
2021/08/19 05:21:11;;;;;;;4.30;2.88;;;;;;;13.88;55.53;101010.84;5037263;28;20029;-70
2021/08/19 05:23:36;;;;;;;10.90;3.45;;;;;;;14.26;54.47;101007.13;5037888;28;20619;-70
2021/08/19 05:26:02;;;;;;;9.32;3.50;;;;;;;14.24;54.14;101027.41;5039401;28;20061;-70
2021/08/19 05:28:28;;;;;;;5.63;3.00;;;;;;;14.36;53.73;101019.69;5035784;28;20025;-69
2021/08/19 05:30:53;;;;;;;8.48;3.40;;;;;;;14.34;53.83;101021.56;5036997;28;20391;-69
2021/08/19 05:33:19;;;;;;;6.13;2.63;;;;;;;14.40;53.97;101020.38;5036438;28;20445;-71
2021/08/19 05:35:44;;;;;;;9.75;2.78;;;;;;;14.23;54.63;101029.19;5037825;28;20041;-71
2021/08/19 05:38:10;;;;;;;14.18;3.03;;;;;;;14.34;54.00;101029.47;5038453;28;20037;-66
2021/08/19 05:40:35;;;;;;;4.93;2.70;;;;;;;14.27;54.34;101021.97;5034498;28;20037;-72
2021/08/19 05:43:01;;;;;;;8.70;3.47;;;;;;;14.62;53.88;101035.88;5036916;28;20336;-71
2021/08/19 05:45:27;;;;;;;4.68;2.55;;;;;;;14.02;55.24;101030.31;5037672;28;20044;-68
2021/08/19 05:47:53;;;;;;;9.10;3.72;;;;;;;14.67;53.66;101031.22;5034470;28;20036;-65
2021/08/19 05:50:18;;;;;;;9.43;2.95;;;;;;;14.88;53.06;101028.31;5036269;28;20164;-66
2021/08/19 05:52:44;;;;;;;8.88;2.92;;;;;;;14.63;53.57;101027.03;5034650;28;20041;-66
2021/08/19 05:55:10;;;;;;;9.27;3.60;;;;;;;14.66;53.88;101026.88;5036015;28;20132;-66
2021/08/19 05:57:36;;;;;;;6.00;2.97;;;;;;;15.06;53.18;101023.81;5037380;28;20305;-67
2021/08/19 06:00:03;;;;;;;7.32;2.55;;;;;;;15.05;53.37;101033.50;5036586;28;20116;-68
2021/08/19 06:02:30;;;;;;;9.50;3.67;;;;;;;14.75;53.73;101036.06;5038494;28;20029;-68
2021/08/19 06:04:56;;;;;;;5.80;3.67;;;;;;;14.68;54.09;101025.03;5035817;28;20421;-68
2021/08/19 06:07:21;;;;;;;7.40;3.20;;;;;;;14.92;53.92;101024.59;5037453;28;20041;-66
2021/08/19 06:09:47;;;;;;;5.05;3.42;;;;;;;15.08;53.68;101028.06;5042084;28;20081;-67
2021/08/19 06:12:13;;;;;;;9.98;4.28;;;;;;;15.12;53.42;101040.09;5039888;28;20048;-66
2021/08/19 06:14:39;;;;;;;5.93;3.33;;;;;;;15.15;53.35;101039.09;5050080;28;20033;-66
2021/08/19 06:17:05;;;;;;;8.63;3.30;;;;;;;15.24;53.59;101040.38;5054221;28;20009;-66
2021/08/19 06:19:30;;;;;;;4.50;2.92;;;;;;;15.33;53.23;101045.13;5052751;28;20631;-66
2021/08/19 06:21:56;;;;;;;6.28;3.33;;;;;;;15.56;52.81;101044.63;5055949;28;20025;-67
2021/08/19 06:24:24;;;;;;;13.23;2.88;;;;;;;15.58;52.84;101037.50;5055584;28;20073;-66
2021/08/19 06:26:50;;;;;;;5.93;2.97;;;;;;;15.62;52.78;101032.03;5055511;28;20048;-67
2021/08/19 06:29:15;;;;;;;7.18;3.75;;;;;;;15.87;52.11;101042.81;5052387;28;20048;-67
2021/08/19 06:31:41;;;;;;;9.07;4.55;;;;;;;15.70;52.50;101032.44;5047706;28;20369;-68
2021/08/19 06:34:06;;;;;;;8.18;3.58;;;;;;;15.62;52.86;101027.63;5037433;28;20354;-67
2021/08/19 06:36:32;;;;;;;4.95;3.33;;;;;;;15.61;52.78;101039.09;5034547;28;20128;-68
2021/08/19 06:38:58;;;;;;;11.80;4.72;;;;;;;15.65;52.67;101039.78;5036389;28;20136;-68
2021/08/19 06:41:27;;;;;;;8.68;3.88;;;;;;;15.28;54.04;101039.25;5036341;28;20057;-67
2021/08/19 06:43:53;;;;;;;8.43;3.80;;;;;;;15.49;53.51;101038.03;5035888;28;20453;-68
2021/08/19 06:46:19;;;;;;;8.32;4.35;;;;;;;15.63;53.27;101039.00;5034570;28;20053;-67
2021/08/19 06:48:44;;;;;;;8.27;4.57;;;;;;;15.55;53.33;101045.59;5033095;28;20043;-69
2021/08/19 06:51:10;;;;;;;5.93;3.65;;;;;;;15.66;53.40;101041.44;5035925;28;20548;-67
2021/08/19 06:53:36;;;;;;;6.55;3.88;;;;;;;15.81;53.52;101045.81;5034213;28;20052;-67
2021/08/19 06:56:02;;;;;;;10.88;4.65;;;;;;;15.94;53.06;101049.41;5035535;28;20033;-66
2021/08/19 06:58:28;;;;;;;5.82;3.92;;;;;;;15.90;52.87;101047.91;5036194;28;20676;-67
2021/08/19 07:00:53;;;;;;;9.63;4.25;;;;;;;15.63;53.66;101053.03;5034107;28;20067;-68
2021/08/19 07:03:19;;;;;;;11.13;4.85;;;;;;;15.77;53.46;101055.72;5036904;28;20029;-67
2021/08/19 07:05:45;;;;;;;8.57;3.83;;;;;;;15.66;53.85;101049.34;5040747;28;20370;-67
2021/08/19 07:08:11;;;;;;;8.82;4.13;;;;;;;15.41;54.47;101049.94;5037673;28;20032;-66
2021/08/19 07:10:38;;;;;;;7.65;4.60;;;;;;;15.40;54.36;101045.63;5032300;28;20030;-67
2021/08/19 07:13:05;;;;;;;8.18;4.68;;;;;;;15.58;54.09;101053.28;5034714;28;20029;-67
2021/08/19 07:15:30;;;;;;;6.57;5.00;;;;;;;15.49;54.55;101058.25;5034924;28;20405;-66
2021/08/19 07:17:56;;;;;;;7.32;5.07;;;;;;;15.71;54.19;101050.78;5031274;28;20029;-68
2021/08/19 07:20:22;;;;;;;9.15;4.63;;;;;;;15.83;53.99;101049.22;5034328;28;20200;-67
2021/08/19 07:22:47;;;;;;;5.82;4.32;;;;;;;15.93;53.88;101053.00;5035760;28;20426;-67
2021/08/19 07:25:17;;;;;;;7.82;4.70;;;;;;;16.04;53.85;101054.16;5034036;28;20446;-67
2021/08/19 07:27:43;;;;;;;11.80;5.40;;;;;;;16.01;53.37;101049.94;5032302;28;20321;-67
2021/08/19 07:30:10;;;;;;;10.20;4.85;;;;;;;16.12;53.75;101057.19;5033485;28;20029;-67
2021/08/19 07:32:36;;;;;;;10.00;5.13;;;;;;;16.23;53.60;101054.75;5038357;28;20048;-67
2021/08/19 07:35:03;;;;;;;6.88;4.38;;;;;;;16.08;53.29;101058.31;5037763;28;20091;-67
2021/08/19 07:37:28;;;;;;;13.02;6.20;;;;;;;15.90;54.03;101052.34;5037050;28;20039;-68
2021/08/19 07:39:54;;;;;;;9.82;5.85;;;;;;;15.89;54.16;101059.41;5040495;28;20041;-68
2021/08/19 07:42:20;;;;;;;7.25;5.85;;;;;;;15.90;54.15;101063.72;5038776;28;20051;-70
2021/08/19 07:44:45;;;;;;;8.48;5.05;;;;;;;15.96;53.81;101058.09;5039031;28;20108;-68
2021/08/19 07:47:10;;;;;;;8.32;5.07;;;;;;;16.00;53.93;101058.78;5038341;28;20051;-68
2021/08/19 07:49:36;;;;;;;8.23;5.47;;;;;;;15.84;54.28;101064.09;5037974;28;20344;-67
2021/08/19 07:52:02;;;;;;;11.13;5.78;;;;;;;16.09;54.35;101073.22;5041535;28;20685;-68
2021/08/19 07:54:27;;;;;;;9.77;5.88;;;;;;;16.09;54.12;101070.56;5036071;28;20028;-68
2021/08/19 07:56:53;;;;;;;11.75;6.35;;;;;;;16.18;54.60;101070.00;5038341;28;20111;-68
2021/08/19 07:59:18;;;;;;;9.98;7.15;;;;;;;16.30;54.13;101065.78;5045143;28;20116;-67
2021/08/19 08:01:44;;;;;;;12.23;6.40;;;;;;;16.36;53.94;101066.25;5035920;28;20164;-68
2021/08/19 08:04:09;;;;;;;8.32;5.35;;;;;;;16.37;53.95;101065.28;5034112;28;20033;-67
2021/08/19 08:06:39;;;;;;;11.00;5.95;;;;;;;16.42;54.05;101073.78;5051894;28;20033;-67
2021/08/19 08:09:05;;;;;;;12.32;6.10;;;;;;;16.29;53.97;101069.38;5034837;28;20747;-67
2021/08/19 08:11:30;;;;;;;12.15;6.13;;;;;;;16.04;54.10;101083.16;5036608;28;20378;-68
2021/08/19 08:13:56;;;;;;;10.60;5.90;;;;;;;16.03;54.49;101082.31;5035886;28;20044;-68
2021/08/19 08:16:22;;;;;;;9.00;5.60;;;;;;;15.93;54.34;101078.50;5036585;28;20391;-67
2021/08/19 08:18:47;;;;;;;8.82;4.55;;;;;;;15.58;54.66;101081.44;5035987;28;20381;-68
2021/08/19 08:21:14;;;;;;;9.48;4.15;;;;;;;15.88;54.58;101081.41;5037040;28;20032;-68
2021/08/19 08:23:43;;;;;;;9.40;4.05;;;;;;;16.13;54.19;101078.22;5035226;28;20044;-68
2021/08/19 08:26:11;;;;;;;6.70;4.03;;;;;;;16.09;53.34;101091.66;5037096;28;20087;-68
2021/08/19 08:28:37;;;;;;;6.95;3.35;;;;;;;16.03;53.42;101084.13;5031884;28;20056;-68
2021/08/19 08:31:03;;;;;;;5.30;2.78;;;;;;;16.15;53.36;101088.63;5030725;28;20065;-68
2021/08/19 08:33:32;;;;;;;8.13;2.95;;;;;;;16.15;53.66;101089.50;5035062;28;20107;-68
2021/08/19 08:35:58;;;;;;;5.80;3.50;;;;;;;16.06;53.32;101084.75;5032785;28;20152;-68
2021/08/19 08:38:25;;;;;;;4.57;2.63;;;;;;;16.23;53.81;101090.84;5031020;28;20494;-68
2021/08/19 08:40:52;;;;;;;5.93;3.42;;;;;;;16.58;53.80;101091.31;5038600;28;20036;-68
2021/08/19 08:43:21;;;;;;;8.93;3.72;;;;;;;17.15;53.11;101096.50;5036086;28;20040;-68
2021/08/19 08:45:48;;;;;;;6.82;2.95;;;;;;;17.10;51.25;101101.25;5035149;28;20072;-68
2021/08/19 08:48:16;;;;;;;5.13;3.35;;;;;;;17.15;51.00;101100.94;5034155;28;20043;-68
2021/08/19 08:50:45;;;;;;;5.80;3.58;;;;;;;17.61;51.18;101098.81;5036773;28;20033;-68
2021/08/19 08:53:12;;;;;;;10.70;2.95;;;;;;;17.91;51.19;101105.63;5040757;28;20029;-68
2021/08/19 08:55:38;;;;;;;5.32;2.85;;;;;;;17.61;50.52;101108.56;5037247;28;20048;-68
2021/08/19 08:58:05;;;;;;;4.55;2.38;;;;;;;17.69;50.02;101110.66;5035049;28;20033;-68
2021/08/19 09:00:31;;;;;;;4.03;2.45;;;;;;;17.84;50.14;101109.66;5036201;28;20041;-68
2021/08/19 09:02:56;;;;;;;8.43;3.47;;;;;;;17.68;49.46;101101.06;5049640;28;20512;-68
2021/08/19 09:05:27;;;;;;;7.28;2.67;;;;;;;17.64;49.19;101097.75;5033598;28;20025;-68
2021/08/19 09:08:02;;;;;;;6.00;3.35;;;;;;;18.04;48.55;101106.50;5034662;28;20116;-68
2021/08/19 09:10:30;;;;;;;6.90;2.58;;;;;;;18.25;47.80;101104.22;5033381;28;20512;-68
2021/08/19 09:13:04;;;;;;;5.43;2.90;;;;;;;18.48;48.17;101110.56;5035774;28;20117;-70
2021/08/19 09:15:30;;;;;;;4.30;2.40;;;;;;;18.34;46.38;101110.69;5037333;28;20032;-68
2021/08/19 09:17:56;;;;;;;7.13;2.13;;;;;;;18.79;46.81;101116.34;5031422;28;20422;-68
2021/08/19 09:20:33;;;;;;;4.20;2.00;;;;;;;19.13;45.21;101119.25;5030827;28;20056;-68
2021/08/19 09:23:00;;;;;;;6.68;2.25;;;;;;;19.85;44.85;101116.56;5039993;28;20029;-68
2021/08/19 09:25:25;;;;;;;3.97;2.38;;;;;;;21.03;42.68;101109.19;5035970;28;20029;-67
2021/08/19 09:28:29;;;;;;;5.72;1.65;;;;;;;22.34;38.98;101109.81;5036265;28;20028;-67
2021/08/19 09:31:03;;;;;;;4.53;1.48;;;;;;;23.46;37.71;101111.53;5033745;28;20040;-68
2021/08/19 09:33:32;;;;;;;4.40;2.15;;;;;;;23.57;35.66;101114.06;5035071;28;20502;-68
2021/08/19 09:36:02;;;;;;;4.72;1.65;;;;;;;22.82;36.84;101113.66;5030669;28;20502;-68
2021/08/19 09:38:48;;;;;;;2.60;1.23;;;;;;;22.16;37.71;101114.91;5034259;28;20087;-68
2021/08/19 09:41:17;;;;;;;3.88;1.50;;;;;;;22.17;37.98;101119.25;5038025;28;20602;-68
2021/08/19 09:43:51;;;;;;;2.50;1.70;;;;;;;21.76;38.16;101110.28;5035148;28;20047;-68
2021/08/19 09:46:32;;;;;;;2.75;2.10;;;;;;;22.29;38.35;101105.84;5034252;28;20028;-67
2021/08/19 09:49:00;;;;;;;5.00;2.15;;;;;;;21.97;40.37;101117.41;5040936;28;20037;-68
2021/08/19 09:51:27;;;;;;;3.08;1.67;;;;;;;22.50;37.71;101109.31;5032678;28;20039;-68
2021/08/19 09:53:58;;;;;;;3.75;1.60;;;;;;;21.36;39.11;101107.41;5032087;28;20055;-67
2021/08/19 09:56:31;;;;;;;3.08;1.73;;;;;;;21.71;38.04;101100.97;5032671;28;20045;-67
2021/08/19 09:59:20;;;;;;;3.67;2.03;;;;;;;21.47;38.53;101102.09;5033658;28;20091;-67
2021/08/19 10:01:47;;;;;;;6.53;1.95;;;;;;;21.54;38.42;101097.09;5032824;28;20061;-67
2021/08/19 10:04:14;;;;;;;3.55;1.90;;;;;;;21.17;40.26;101099.25;5032611;28;20037;-69
2021/08/19 10:06:40;;;;;;;3.47;2.08;;;;;;;21.28;39.03;101094.72;5030724;28;20039;-67
2021/08/19 10:09:05;;;;;;;8.05;1.85;;;;;;;21.85;38.11;101092.69;5032478;28;20038;-67
2021/08/19 10:11:35;;;;;;;6.82;1.65;;;;;;;22.14;37.18;101090.25;5033385;28;20044;-67
2021/08/19 10:14:04;;;;;;;4.35;1.70;;;;;;;21.02;39.02;101088.03;5031386;28;20069;-66
2021/08/19 10:16:34;;;;;;;3.08;2.30;;;;;;;21.38;39.97;101100.16;5029156;28;20033;-67
2021/08/19 10:19:11;;;;;;;3.38;0.95;;;;;;;21.50;38.59;101093.00;5029821;28;20056;-66
2021/08/19 10:21:42;;;;;;;2.30;1.42;;;;;;;19.95;40.46;101092.00;5030552;28;20025;-67
2021/08/19 10:24:09;;;;;;;4.38;1.88;;;;;;;20.25;40.04;101094.13;5033383;28;20079;-66
2021/08/19 10:26:35;;;;;;;3.85;1.90;;;;;;;19.97;40.64;101088.28;5034220;28;20035;-66
2021/08/19 10:29:02;;;;;;;4.65;1.73;;;;;;;19.94;40.11;101085.00;5035913;28;20032;-67
2021/08/19 10:31:40;;;;;;;6.38;1.33;;;;;;;20.19;40.24;101094.56;5033738;28;20068;-66
2021/08/19 10:34:07;;;;;;;3.35;1.38;;;;;;;20.20;39.92;101091.81;5031604;28;20128;-67
2021/08/19 10:36:38;;;;;;;2.60;1.27;;;;;;;19.79;40.12;101095.84;5029939;28;20155;-68
2021/08/19 10:39:19;;;;;;;3.40;1.67;;;;;;;20.02;40.23;101094.06;5033476;28;20040;-66
2021/08/19 10:41:46;;;;;;;3.28;1.85;;;;;;;19.79;40.43;101101.16;5036269;28;20092;-66
2021/08/19 10:44:14;;;;;;;5.05;2.00;;;;;;;20.08;40.26;101092.75;5037765;28;20079;-66
2021/08/19 10:46:44;;;;;;;2.33;1.35;;;;;;;20.02;39.87;101102.03;5031425;28;20354;-66
2021/08/19 10:49:29;;;;;;;5.78;2.10;;;;;;;19.64;40.82;101095.19;5030641;28;20079;-66
2021/08/19 10:51:55;;;;;;;3.70;1.50;;;;;;;19.38;41.17;101102.38;5031270;28;20041;-65
2021/08/19 10:54:34;;;;;;;3.58;1.92;;;;;;;19.33;42.59;101106.34;5030082;28;20040;-66
2021/08/19 10:57:32;;;;;;;8.32;2.15;;;;;;;19.04;42.06;101106.66;5030537;28;20033;-67
2021/08/19 10:59:58;;;;;;;7.75;3.33;;;;;;;18.86;43.27;101120.25;5032898;28;20065;-66
2021/08/19 11:02:42;;;;;;;10.00;3.53;;;;;;;19.05;42.64;101113.66;5028825;28;20151;-67
2021/08/19 11:05:41;;;;;;;8.18;3.42;;;;;;;18.87;42.63;101118.44;5029700;28;20029;-66
2021/08/19 11:08:08;;;;;;;9.90;3.55;;;;;;;19.14;42.80;101115.63;5026457;28;20060;-66
2021/08/19 11:10:36;;;;;;;6.22;3.10;;;;;;;19.22;42.80;101115.91;5032035;28;20474;-67
2021/08/19 11:13:05;;;;;;;9.70;2.80;;;;;;;19.64;41.78;101111.09;5030206;28;20048;-67
2021/08/19 11:15:31;;;;;;;5.70;2.55;;;;;;;19.76;40.21;101119.91;5031892;28;20165;-67
2021/08/19 11:17:59;;;;;;;6.80;3.22;;;;;;;19.48;40.74;101121.97;5032565;28;20040;-68
2021/08/19 11:20:26;;;;;;;5.25;2.63;;;;;;;19.35;40.81;101120.34;5030373;28;20032;-68
2021/08/19 11:23:12;;;;;;;9.10;3.05;;;;;;;19.15;40.88;101119.13;5033816;28;20040;-66
2021/08/19 11:25:42;;;;;;;6.93;2.97;;;;;;;19.30;40.02;101118.88;5031973;28;20032;-65